Hauptseite
METAR-TAF:

METAR-TAF

Flughäfen :

Rheine, Deutschland

Heeresflugplatz Rheine-Bentlage

Breite: 52-18N, Länge: 007-23E, Höhe: 40 m

Beobachtung

Neuester Wetterbericht von vor 28 Minuten, um 18:20 UTC
Wind 5 kt aus West/Südwest
Temperatur 11°C
Luftfeuchtigkeit 82%
Luftdruck 1020 hPa

METAR: ETHE 231820Z AUTO 25005KT //// // ////// 11/08 Q1020 ///

Zeit: 20:48 (18:48 UTC)

Prognose

Neuester Wetterbericht von vor 5 Stunden und 40 Minuten, um 13:08 UTC
Gültige Prognose vom 23 um 14 UTC bis 23 um 23 UTC
Wind 15 kt aus West, Böen bis zu 25 kt
Sichtweite: 1330 m
Aufgelockert bewölkt in der Höhe von 1500 ft
Durchbrochene Bewölkung in der Höhe von 2500 ft

TAF: ETHE 231308Z 2314/2323 27015G25KT 9999 NSW SCT015 BKN025 CANCEL 1330

Wetterbeobachtungen und Prognosen von mehr als 4000 Flughäfen (METAR und TAF Bericht).

Die verfügbaren Stationen werden durch gelbe und rote Markierungen auf der Karte dargestellt.

Führen Sie die Maus auf sie, um den Namen der Station zu sehen.

Darauf klicken, um die Beobachtung von Wetterbeobachtungen und Prognosen zu sehen.

Um die Karte zu ändern : klicken Sie auf den grünen Tasten mit einem schwarzen Kreuz Zum Vergrößern, auf den grünen Button mit einem Gedankenstrich zu verkleinern, oder auf die grünen Pfeile für benachbarte Karten.


METAR-TAF: